sensor_id;sensor_type;location;lat;lon;timestamp;P1;durP1;ratioP1;P2;durP2;ratioP2
74196;SDS011;62555;52.678;4.900;2023-07-09T00:01:22;63.13;;;50.83;;
74196;SDS011;62555;52.678;4.900;2023-07-09T00:03:47;68.40;;;53.60;;
74196;SDS011;62555;52.678;4.900;2023-07-09T00:06:16;69.93;;;52.65;;
74196;SDS011;62555;52.678;4.900;2023-07-09T00:08:42;73.13;;;53.83;;
74196;SDS011;62555;52.678;4.900;2023-07-09T00:11:08;70.88;;;53.92;;
74196;SDS011;62555;52.678;4.900;2023-07-09T00:13:34;71.83;;;53.03;;
74196;SDS011;62555;52.678;4.900;2023-07-09T00:16:00;72.97;;;59.20;;
74196;SDS011;62555;52.678;4.900;2023-07-09T00:18:25;71.43;;;53.78;;
74196;SDS011;62555;52.678;4.900;2023-07-09T00:20:51;75.03;;;60.77;;
74196;SDS011;62555;52.678;4.900;2023-07-09T00:23:16;71.47;;;56.63;;
74196;SDS011;62555;52.678;4.900;2023-07-09T00:25:44;73.40;;;56.03;;
74196;SDS011;62555;52.678;4.900;2023-07-09T00:28:16;73.10;;;56.05;;
74196;SDS011;62555;52.678;4.900;2023-07-09T00:30:43;75.72;;;57.00;;
74196;SDS011;62555;52.678;4.900;2023-07-09T00:33:10;77.35;;;55.80;;
74196;SDS011;62555;52.678;4.900;2023-07-09T00:35:36;79.15;;;58.90;;
74196;SDS011;62555;52.678;4.900;2023-07-09T00:38:01;77.87;;;57.80;;
74196;SDS011;62555;52.678;4.900;2023-07-09T00:40:27;75.70;;;58.72;;
74196;SDS011;62555;52.678;4.900;2023-07-09T00:42:53;79.20;;;58.23;;
74196;SDS011;62555;52.678;4.900;2023-07-09T00:45:23;74.93;;;57.55;;
74196;SDS011;62555;52.678;4.900;2023-07-09T00:48:02;79.38;;;60.95;;
74196;SDS011;62555;52.678;4.900;2023-07-09T00:50:32;78.05;;;61.28;;
74196;SDS011;62555;52.678;4.900;2023-07-09T00:52:59;82.30;;;60.90;;
74196;SDS011;62555;52.678;4.900;2023-07-09T00:55:31;81.20;;;63.83;;
74196;SDS011;62555;52.678;4.900;2023-07-09T00:57:59;81.78;;;61.15;;
74196;SDS011;62555;52.678;4.900;2023-07-09T01:00:45;84.57;;;62.13;;
74196;SDS011;62555;52.678;4.900;2023-07-09T01:03:21;78.93;;;62.95;;
74196;SDS011;62555;52.678;4.900;2023-07-09T01:05:48;80.13;;;64.40;;
74196;SDS011;62555;52.678;4.900;2023-07-09T01:08:16;83.72;;;63.42;;
74196;SDS011;62555;52.678;4.900;2023-07-09T01:10:41;78.68;;;62.55;;
74196;SDS011;62555;52.678;4.900;2023-07-09T01:13:07;80.33;;;62.90;;
74196;SDS011;62555;52.678;4.900;2023-07-09T01:15:33;81.68;;;61.30;;
74196;SDS011;62555;52.678;4.900;2023-07-09T01:17:59;81.57;;;63.58;;
74196;SDS011;62555;52.678;4.900;2023-07-09T01:20:26;80.97;;;61.25;;
74196;SDS011;62555;52.678;4.900;2023-07-09T01:22:51;78.47;;;60.50;;
74196;SDS011;62555;52.678;4.900;2023-07-09T01:25:20;82.15;;;61.17;;
74196;SDS011;62555;52.678;4.900;2023-07-09T01:27:46;83.60;;;63.67;;
74196;SDS011;62555;52.678;4.900;2023-07-09T01:32:37;78.43;;;60.00;;
74196;SDS011;62555;52.678;4.900;2023-07-09T01:35:03;77.20;;;63.78;;
74196;SDS011;62555;52.678;4.900;2023-07-09T01:37:32;77.97;;;58.97;;
74196;SDS011;62555;52.678;4.900;2023-07-09T01:39:57;79.20;;;58.58;;
74196;SDS011;62555;52.678;4.900;2023-07-09T01:42:24;74.35;;;57.55;;
74196;SDS011;62555;52.678;4.900;2023-07-09T01:44:49;74.85;;;57.30;;
74196;SDS011;62555;52.678;4.900;2023-07-09T01:47:15;74.68;;;58.72;;
74196;SDS011;62555;52.678;4.900;2023-07-09T01:49:40;74.45;;;57.30;;
74196;SDS011;62555;52.678;4.900;2023-07-09T01:52:06;76.60;;;57.13;;
74196;SDS011;62555;52.678;4.900;2023-07-09T01:54:33;76.03;;;56.75;;
74196;SDS011;62555;52.678;4.900;2023-07-09T01:57:19;72.80;;;56.58;;
74196;SDS011;62555;52.678;4.900;2023-07-09T01:59:47;71.53;;;56.53;;
74196;SDS011;62555;52.678;4.900;2023-07-09T02:02:13;71.10;;;54.63;;
74196;SDS011;62555;52.678;4.900;2023-07-09T02:04:43;72.95;;;55.95;;
74196;SDS011;62555;52.678;4.900;2023-07-09T02:07:09;69.93;;;52.50;;
74196;SDS011;62555;52.678;4.900;2023-07-09T02:09:34;69.18;;;55.83;;
74196;SDS011;62555;52.678;4.900;2023-07-09T02:11:59;69.40;;;52.70;;
74196;SDS011;62555;52.678;4.900;2023-07-09T02:14:24;70.20;;;53.03;;
74196;SDS011;62555;52.678;4.900;2023-07-09T02:16:50;70.20;;;54.07;;
74196;SDS011;62555;52.678;4.900;2023-07-09T02:19:15;67.65;;;53.80;;
74196;SDS011;62555;52.678;4.900;2023-07-09T02:21:40;69.80;;;53.67;;
74196;SDS011;62555;52.678;4.900;2023-07-09T02:24:05;68.77;;;51.13;;
74196;SDS011;62555;52.678;4.900;2023-07-09T02:26:31;66.30;;;51.53;;
74196;SDS011;62555;52.678;4.900;2023-07-09T02:28:56;67.80;;;54.77;;
74196;SDS011;62555;52.678;4.900;2023-07-09T02:31:21;65.07;;;49.70;;
74196;SDS011;62555;52.678;4.900;2023-07-09T02:33:46;61.40;;;48.27;;
74196;SDS011;62555;52.678;4.900;2023-07-09T02:36:11;65.47;;;50.40;;
74196;SDS011;62555;52.678;4.900;2023-07-09T02:38:36;60.93;;;48.17;;
74196;SDS011;62555;52.678;4.900;2023-07-09T02:41:02;62.70;;;47.57;;
74196;SDS011;62555;52.678;4.900;2023-07-09T02:43:27;63.60;;;47.63;;
74196;SDS011;62555;52.678;4.900;2023-07-09T02:45:52;62.73;;;48.90;;
74196;SDS011;62555;52.678;4.900;2023-07-09T02:48:17;59.20;;;51.07;;
74196;SDS011;62555;52.678;4.900;2023-07-09T02:50:42;56.33;;;44.57;;
74196;SDS011;62555;52.678;4.900;2023-07-09T02:53:08;58.97;;;50.77;;
74196;SDS011;62555;52.678;4.900;2023-07-09T02:55:33;61.53;;;47.47;;
74196;SDS011;62555;52.678;4.900;2023-07-09T02:57:59;57.80;;;45.38;;
74196;SDS011;62555;52.678;4.900;2023-07-09T03:00:24;59.43;;;46.63;;
74196;SDS011;62555;52.678;4.900;2023-07-09T03:02:50;54.77;;;45.27;;
74196;SDS011;62555;52.678;4.900;2023-07-09T03:05:15;58.70;;;44.87;;
74196;SDS011;62555;52.678;4.900;2023-07-09T03:07:40;55.93;;;44.53;;
74196;SDS011;62555;52.678;4.900;2023-07-09T03:10:05;56.90;;;44.53;;
74196;SDS011;62555;52.678;4.900;2023-07-09T03:12:31;52.08;;;42.65;;
74196;SDS011;62555;52.678;4.900;2023-07-09T03:14:56;53.50;;;42.80;;
74196;SDS011;62555;52.678;4.900;2023-07-09T03:17:21;51.43;;;42.90;;
74196;SDS011;62555;52.678;4.900;2023-07-09T03:19:46;51.70;;;40.63;;
74196;SDS011;62555;52.678;4.900;2023-07-09T03:22:12;53.27;;;40.97;;
74196;SDS011;62555;52.678;4.900;2023-07-09T03:24:37;50.37;;;39.90;;
74196;SDS011;62555;52.678;4.900;2023-07-09T03:27:02;50.93;;;41.90;;
74196;SDS011;62555;52.678;4.900;2023-07-09T03:29:27;53.78;;;40.33;;
74196;SDS011;62555;52.678;4.900;2023-07-09T03:31:53;45.90;;;39.33;;
74196;SDS011;62555;52.678;4.900;2023-07-09T03:34:18;49.50;;;41.97;;
74196;SDS011;62555;52.678;4.900;2023-07-09T03:36:43;50.50;;;38.13;;
74196;SDS011;62555;52.678;4.900;2023-07-09T03:39:08;48.03;;;37.20;;
74196;SDS011;62555;52.678;4.900;2023-07-09T03:41:34;47.13;;;36.33;;
74196;SDS011;62555;52.678;4.900;2023-07-09T03:43:59;46.67;;;36.63;;
74196;SDS011;62555;52.678;4.900;2023-07-09T03:46:24;47.83;;;37.83;;
74196;SDS011;62555;52.678;4.900;2023-07-09T03:48:49;45.97;;;37.60;;
74196;SDS011;62555;52.678;4.900;2023-07-09T03:51:15;44.72;;;35.85;;
74196;SDS011;62555;52.678;4.900;2023-07-09T03:53:40;44.58;;;36.03;;
74196;SDS011;62555;52.678;4.900;2023-07-09T03:56:06;45.87;;;39.00;;
74196;SDS011;62555;52.678;4.900;2023-07-09T03:58:31;44.03;;;34.05;;
74196;SDS011;62555;52.678;4.900;2023-07-09T04:00:56;43.20;;;35.13;;
74196;SDS011;62555;52.678;4.900;2023-07-09T04:03:22;43.50;;;36.43;;
74196;SDS011;62555;52.678;4.900;2023-07-09T04:05:48;40.47;;;35.28;;
74196;SDS011;62555;52.678;4.900;2023-07-09T04:08:13;41.50;;;35.65;;
74196;SDS011;62555;52.678;4.900;2023-07-09T04:10:38;38.67;;;33.03;;
74196;SDS011;62555;52.678;4.900;2023-07-09T04:13:04;39.87;;;33.10;;
74196;SDS011;62555;52.678;4.900;2023-07-09T04:15:29;38.87;;;32.23;;
74196;SDS011;62555;52.678;4.900;2023-07-09T04:17:54;41.27;;;32.63;;
74196;SDS011;62555;52.678;4.900;2023-07-09T04:20:19;37.95;;;31.95;;
74196;SDS011;62555;52.678;4.900;2023-07-09T04:22:45;35.38;;;29.85;;
74196;SDS011;62555;52.678;4.900;2023-07-09T04:25:10;38.40;;;33.77;;
74196;SDS011;62555;52.678;4.900;2023-07-09T04:27:36;36.65;;;30.15;;
74196;SDS011;62555;52.678;4.900;2023-07-09T04:30:02;38.70;;;30.85;;
74196;SDS011;62555;52.678;4.900;2023-07-09T04:32:28;38.28;;;31.10;;
74196;SDS011;62555;52.678;4.900;2023-07-09T04:34:53;35.63;;;30.00;;
74196;SDS011;62555;52.678;4.900;2023-07-09T04:37:18;36.13;;;32.37;;
74196;SDS011;62555;52.678;4.900;2023-07-09T04:39:44;34.35;;;30.05;;
74196;SDS011;62555;52.678;4.900;2023-07-09T04:42:12;37.60;;;30.67;;
74196;SDS011;62555;52.678;4.900;2023-07-09T04:44:38;33.05;;;28.65;;
74196;SDS011;62555;52.678;4.900;2023-07-09T04:47:03;35.53;;;28.13;;
74196;SDS011;62555;52.678;4.900;2023-07-09T04:49:28;34.67;;;28.92;;
74196;SDS011;62555;52.678;4.900;2023-07-09T04:51:53;34.83;;;28.43;;
74196;SDS011;62555;52.678;4.900;2023-07-09T04:54:21;33.70;;;28.95;;
74196;SDS011;62555;52.678;4.900;2023-07-09T04:56:47;34.03;;;27.75;;
74196;SDS011;62555;52.678;4.900;2023-07-09T04:59:13;32.50;;;28.08;;
74196;SDS011;62555;52.678;4.900;2023-07-09T05:01:39;33.00;;;28.00;;
74196;SDS011;62555;52.678;4.900;2023-07-09T05:04:04;32.60;;;26.33;;
74196;SDS011;62555;52.678;4.900;2023-07-09T05:06:29;31.42;;;27.17;;
74196;SDS011;62555;52.678;4.900;2023-07-09T05:08:54;31.73;;;25.85;;
74196;SDS011;62555;52.678;4.900;2023-07-09T05:11:20;31.20;;;25.90;;
74196;SDS011;62555;52.678;4.900;2023-07-09T05:13:45;31.47;;;26.33;;
74196;SDS011;62555;52.678;4.900;2023-07-09T05:16:10;32.13;;;27.30;;
74196;SDS011;62555;52.678;4.900;2023-07-09T05:18:36;31.07;;;26.00;;
74196;SDS011;62555;52.678;4.900;2023-07-09T05:21:01;29.55;;;25.40;;
74196;SDS011;62555;52.678;4.900;2023-07-09T05:23:26;29.47;;;25.47;;
74196;SDS011;62555;52.678;4.900;2023-07-09T05:25:58;29.80;;;25.10;;
74196;SDS011;62555;52.678;4.900;2023-07-09T05:28:23;28.85;;;24.02;;
74196;SDS011;62555;52.678;4.900;2023-07-09T05:30:48;29.00;;;24.20;;
74196;SDS011;62555;52.678;4.900;2023-07-09T05:33:13;31.97;;;25.20;;
74196;SDS011;62555;52.678;4.900;2023-07-09T05:35:38;28.00;;;23.63;;
74196;SDS011;62555;52.678;4.900;2023-07-09T05:38:04;28.87;;;24.63;;
74196;SDS011;62555;52.678;4.900;2023-07-09T05:40:29;29.37;;;22.97;;
74196;SDS011;62555;52.678;4.900;2023-07-09T05:42:55;27.25;;;23.25;;
74196;SDS011;62555;52.678;4.900;2023-07-09T05:45:20;27.97;;;23.57;;
74196;SDS011;62555;52.678;4.900;2023-07-09T05:47:45;25.43;;;22.73;;
74196;SDS011;62555;52.678;4.900;2023-07-09T05:50:10;28.05;;;23.33;;
74196;SDS011;62555;52.678;4.900;2023-07-09T05:52:36;26.80;;;22.67;;
74196;SDS011;62555;52.678;4.900;2023-07-09T05:55:01;26.20;;;21.73;;
74196;SDS011;62555;52.678;4.900;2023-07-09T05:57:26;26.67;;;22.63;;
74196;SDS011;62555;52.678;4.900;2023-07-09T05:59:51;26.02;;;22.02;;
74196;SDS011;62555;52.678;4.900;2023-07-09T06:02:18;24.90;;;21.40;;
74196;SDS011;62555;52.678;4.900;2023-07-09T06:04:43;25.23;;;21.17;;
74196;SDS011;62555;52.678;4.900;2023-07-09T06:07:08;24.53;;;21.00;;
74196;SDS011;62555;52.678;4.900;2023-07-09T06:09:34;23.25;;;20.75;;
74196;SDS011;62555;52.678;4.900;2023-07-09T06:11:59;24.83;;;20.90;;
74196;SDS011;62555;52.678;4.900;2023-07-09T06:14:26;22.88;;;20.40;;
74196;SDS011;62555;52.678;4.900;2023-07-09T06:16:51;25.13;;;20.30;;
74196;SDS011;62555;52.678;4.900;2023-07-09T06:19:16;22.57;;;20.17;;
74196;SDS011;62555;52.678;4.900;2023-07-09T06:21:41;24.53;;;20.83;;
74196;SDS011;62555;52.678;4.900;2023-07-09T06:24:07;23.27;;;19.73;;
74196;SDS011;62555;52.678;4.900;2023-07-09T06:26:33;21.90;;;19.60;;
74196;SDS011;62555;52.678;4.900;2023-07-09T06:28:58;23.67;;;19.90;;
74196;SDS011;62555;52.678;4.900;2023-07-09T06:31:23;23.08;;;19.98;;
74196;SDS011;62555;52.678;4.900;2023-07-09T06:33:49;22.60;;;19.45;;
74196;SDS011;62555;52.678;4.900;2023-07-09T06:36:14;22.30;;;19.90;;
74196;SDS011;62555;52.678;4.900;2023-07-09T06:38:40;21.47;;;19.17;;
74196;SDS011;62555;52.678;4.900;2023-07-09T06:41:05;21.43;;;19.23;;
74196;SDS011;62555;52.678;4.900;2023-07-09T06:43:30;22.03;;;19.57;;
74196;SDS011;62555;52.678;4.900;2023-07-09T06:46:00;21.25;;;18.95;;
74196;SDS011;62555;52.678;4.900;2023-07-09T06:48:26;21.67;;;19.25;;
74196;SDS011;62555;52.678;4.900;2023-07-09T06:50:51;21.02;;;18.65;;
74196;SDS011;62555;52.678;4.900;2023-07-09T06:53:17;21.13;;;18.92;;
74196;SDS011;62555;52.678;4.900;2023-07-09T06:55:42;20.38;;;18.13;;
74196;SDS011;62555;52.678;4.900;2023-07-09T06:58:07;19.63;;;17.53;;
74196;SDS011;62555;52.678;4.900;2023-07-09T07:00:34;21.40;;;18.25;;
74196;SDS011;62555;52.678;4.900;2023-07-09T07:02:59;20.58;;;18.33;;
74196;SDS011;62555;52.678;4.900;2023-07-09T07:05:24;20.33;;;18.23;;
74196;SDS011;62555;52.678;4.900;2023-07-09T07:07:49;18.77;;;16.77;;
74196;SDS011;62555;52.678;4.900;2023-07-09T07:10:15;20.67;;;18.00;;
74196;SDS011;62555;52.678;4.900;2023-07-09T07:12:41;21.53;;;19.33;;
74196;SDS011;62555;52.678;4.900;2023-07-09T07:15:07;19.35;;;16.98;;
74196;SDS011;62555;52.678;4.900;2023-07-09T07:17:32;19.15;;;17.15;;
74196;SDS011;62555;52.678;4.900;2023-07-09T07:19:58;18.30;;;16.37;;
74196;SDS011;62555;52.678;4.900;2023-07-09T07:22:23;20.37;;;17.47;;
74196;SDS011;62555;52.678;4.900;2023-07-09T07:24:48;18.67;;;16.77;;
74196;SDS011;62555;52.678;4.900;2023-07-09T07:27:13;17.23;;;15.40;;
74196;SDS011;62555;52.678;4.900;2023-07-09T07:29:39;18.05;;;16.25;;
74196;SDS011;62555;52.678;4.900;2023-07-09T07:32:04;19.50;;;17.23;;
74196;SDS011;62555;52.678;4.900;2023-07-09T07:34:29;16.77;;;14.98;;
74196;SDS011;62555;52.678;4.900;2023-07-09T07:36:55;17.20;;;15.47;;
74196;SDS011;62555;52.678;4.900;2023-07-09T07:39:20;16.83;;;15.13;;
74196;SDS011;62555;52.678;4.900;2023-07-09T07:41:45;17.70;;;15.80;;
74196;SDS011;62555;52.678;4.900;2023-07-09T07:44:10;17.57;;;15.77;;
74196;SDS011;62555;52.678;4.900;2023-07-09T07:46:35;17.60;;;15.50;;
74196;SDS011;62555;52.678;4.900;2023-07-09T07:49:01;18.08;;;16.10;;
74196;SDS011;62555;52.678;4.900;2023-07-09T07:51:26;19.03;;;17.00;;
74196;SDS011;62555;52.678;4.900;2023-07-09T07:53:52;15.90;;;14.27;;
74196;SDS011;62555;52.678;4.900;2023-07-09T07:56:17;16.85;;;15.13;;
74196;SDS011;62555;52.678;4.900;2023-07-09T07:58:42;16.07;;;14.47;;
74196;SDS011;62555;52.678;4.900;2023-07-09T08:01:07;15.87;;;14.27;;
74196;SDS011;62555;52.678;4.900;2023-07-09T08:03:32;15.97;;;14.27;;
74196;SDS011;62555;52.678;4.900;2023-07-09T08:05:58;15.03;;;13.53;;
74196;SDS011;62555;52.678;4.900;2023-07-09T08:08:23;14.87;;;13.27;;
74196;SDS011;62555;52.678;4.900;2023-07-09T08:10:51;15.27;;;13.67;;
74196;SDS011;62555;52.678;4.900;2023-07-09T08:13:16;14.98;;;13.40;;
74196;SDS011;62555;52.678;4.900;2023-07-09T08:15:42;14.10;;;12.68;;
74196;SDS011;62555;52.678;4.900;2023-07-09T08:18:07;14.25;;;12.85;;
74196;SDS011;62555;52.678;4.900;2023-07-09T08:20:32;14.37;;;12.87;;
74196;SDS011;62555;52.678;4.900;2023-07-09T08:22:58;15.10;;;13.50;;
74196;SDS011;62555;52.678;4.900;2023-07-09T08:25:23;13.37;;;12.07;;
74196;SDS011;62555;52.678;4.900;2023-07-09T08:27:48;12.80;;;11.50;;
74196;SDS011;62555;52.678;4.900;2023-07-09T08:30:13;12.90;;;11.50;;
74196;SDS011;62555;52.678;4.900;2023-07-09T08:32:40;13.10;;;11.80;;
74196;SDS011;62555;52.678;4.900;2023-07-09T08:35:05;13.00;;;11.40;;
74196;SDS011;62555;52.678;4.900;2023-07-09T08:37:31;13.18;;;11.77;;
74196;SDS011;62555;52.678;4.900;2023-07-09T08:39:56;12.10;;;10.80;;
74196;SDS011;62555;52.678;4.900;2023-07-09T08:42:43;11.77;;;10.57;;
74196;SDS011;62555;52.678;4.900;2023-07-09T08:47:51;11.82;;;10.63;;
74196;SDS011;62555;52.678;4.900;2023-07-09T08:50:29;11.50;;;10.32;;
74196;SDS011;62555;52.678;4.900;2023-07-09T08:52:57;11.25;;;9.95;;
74196;SDS011;62555;52.678;4.900;2023-07-09T08:55:25;10.85;;;9.75;;
74196;SDS011;62555;52.678;4.900;2023-07-09T08:58:04;10.35;;;9.35;;
74196;SDS011;62555;52.678;4.900;2023-07-09T09:00:31;9.95;;;8.95;;
74196;SDS011;62555;52.678;4.900;2023-07-09T09:02:59;10.38;;;9.48;;
74196;SDS011;62555;52.678;4.900;2023-07-09T09:08:38;10.30;;;8.87;;
74196;SDS011;62555;52.678;4.900;2023-07-09T09:10:40;9.55;;;8.65;;
74196;SDS011;62555;52.678;4.900;2023-07-09T09:13:13;9.27;;;8.38;;
74196;SDS011;62555;52.678;4.900;2023-07-09T09:15:39;9.25;;;8.30;;
74196;SDS011;62555;52.678;4.900;2023-07-09T09:18:26;8.98;;;8.18;;
74196;SDS011;62555;52.678;4.900;2023-07-09T09:20:57;8.85;;;8.05;;
74196;SDS011;62555;52.678;4.900;2023-07-09T09:23:22;10.32;;;9.27;;
74196;SDS011;62555;52.678;4.900;2023-07-09T09:25:51;10.82;;;9.73;;
74196;SDS011;62555;52.678;4.900;2023-07-09T09:28:17;10.18;;;9.02;;
74196;SDS011;62555;52.678;4.900;2023-07-09T09:30:43;12.13;;;9.88;;
74196;SDS011;62555;52.678;4.900;2023-07-09T09:33:08;12.00;;;9.17;;
74196;SDS011;62555;52.678;4.900;2023-07-09T09:35:38;10.25;;;8.23;;
74196;SDS011;62555;52.678;4.900;2023-07-09T09:38:09;11.80;;;8.43;;
74196;SDS011;62555;52.678;4.900;2023-07-09T09:40:35;8.38;;;7.57;;
74196;SDS011;62555;52.678;4.900;2023-07-09T09:43:01;8.80;;;7.20;;
74196;SDS011;62555;52.678;4.900;2023-07-09T09:45:27;8.25;;;7.22;;
74196;SDS011;62555;52.678;4.900;2023-07-09T09:50:20;8.20;;;6.90;;
74196;SDS011;62555;52.678;4.900;2023-07-09T09:52:46;7.63;;;6.78;;
74196;SDS011;62555;52.678;4.900;2023-07-09T09:55:20;7.38;;;6.53;;
74196;SDS011;62555;52.678;4.900;2023-07-09T09:57:48;6.63;;;5.95;;
74196;SDS011;62555;52.678;4.900;2023-07-09T10:00:14;7.65;;;6.30;;
74196;SDS011;62555;52.678;4.900;2023-07-09T10:02:43;6.57;;;5.82;;
74196;SDS011;62555;52.678;4.900;2023-07-09T10:05:13;6.03;;;5.43;;
74196;SDS011;62555;52.678;4.900;2023-07-09T10:07:40;6.18;;;5.53;;
74196;SDS011;62555;52.678;4.900;2023-07-09T10:10:10;7.47;;;5.40;;
74196;SDS011;62555;52.678;4.900;2023-07-09T10:12:50;9.73;;;6.32;;
74196;SDS011;62555;52.678;4.900;2023-07-09T10:15:51;7.65;;;6.43;;
74196;SDS011;62555;52.678;4.900;2023-07-09T10:28:28;9.23;;;5.97;;
74196;SDS011;62555;52.678;4.900;2023-07-09T10:33:34;16.37;;;10.07;;
74196;SDS011;62555;52.678;4.900;2023-07-09T10:36:24;9.45;;;5.13;;
74196;SDS011;62555;52.678;4.900;2023-07-09T10:39:34;8.73;;;5.80;;
74196;SDS011;62555;52.678;4.900;2023-07-09T10:41:40;7.30;;;5.15;;
74196;SDS011;62555;52.678;4.900;2023-07-09T10:44:19;8.80;;;4.97;;
74196;SDS011;62555;52.678;4.900;2023-07-09T10:46:47;11.75;;;6.10;;
74196;SDS011;62555;52.678;4.900;2023-07-09T10:49:14;6.13;;;4.68;;
74196;SDS011;62555;52.678;4.900;2023-07-09T10:56:55;7.75;;;4.72;;
74196;SDS011;62555;52.678;4.900;2023-07-09T10:59:25;5.50;;;3.97;;
74196;SDS011;62555;52.678;4.900;2023-07-09T11:02:01;6.00;;;3.97;;
74196;SDS011;62555;52.678;4.900;2023-07-09T11:04:33;6.15;;;4.10;;
74196;SDS011;62555;52.678;4.900;2023-07-09T11:07:11;12.57;;;7.70;;
74196;SDS011;62555;52.678;4.900;2023-07-09T11:09:39;15.18;;;7.20;;
74196;SDS011;62555;52.678;4.900;2023-07-09T11:12:09;8.88;;;5.55;;
74196;SDS011;62555;52.678;4.900;2023-07-09T11:17:01;7.03;;;4.27;;
74196;SDS011;62555;52.678;4.900;2023-07-09T11:19:28;4.25;;;3.58;;
74196;SDS011;62555;52.678;4.900;2023-07-09T11:22:03;5.95;;;3.85;;
74196;SDS011;62555;52.678;4.900;2023-07-09T11:24:34;13.38;;;7.45;;
74196;SDS011;62555;52.678;4.900;2023-07-09T11:27:00;20.65;;;12.38;;
74196;SDS011;62555;52.678;4.900;2023-07-09T11:29:26;7.32;;;5.13;;
74196;SDS011;62555;52.678;4.900;2023-07-09T11:31:52;6.55;;;5.53;;
74196;SDS011;62555;52.678;4.900;2023-07-09T11:34:18;7.03;;;5.47;;
74196;SDS011;62555;52.678;4.900;2023-07-09T11:36:59;7.35;;;6.13;;
74196;SDS011;62555;52.678;4.900;2023-07-09T11:39:29;7.50;;;6.70;;
74196;SDS011;62555;52.678;4.900;2023-07-09T11:41:56;7.57;;;6.88;;
74196;SDS011;62555;52.678;4.900;2023-07-09T11:44:22;7.40;;;6.63;;
74196;SDS011;62555;52.678;4.900;2023-07-09T11:46:52;8.32;;;7.53;;
74196;SDS011;62555;52.678;4.900;2023-07-09T11:49:19;7.05;;;6.35;;
74196;SDS011;62555;52.678;4.900;2023-07-09T11:51:48;7.93;;;6.95;;
74196;SDS011;62555;52.678;4.900;2023-07-09T11:54:17;7.75;;;6.72;;
74196;SDS011;62555;52.678;4.900;2023-07-09T11:59:08;6.82;;;6.10;;
74196;SDS011;62555;52.678;4.900;2023-07-09T12:01:45;7.45;;;6.75;;
74196;SDS011;62555;52.678;4.900;2023-07-09T12:04:13;8.73;;;7.90;;
74196;SDS011;62555;52.678;4.900;2023-07-09T12:06:40;8.65;;;7.60;;
74196;SDS011;62555;52.678;4.900;2023-07-09T12:09:05;9.40;;;8.50;;
74196;SDS011;62555;52.678;4.900;2023-07-09T12:11:32;8.83;;;8.03;;
74196;SDS011;62555;52.678;4.900;2023-07-09T12:14:04;8.95;;;8.15;;
74196;SDS011;62555;52.678;4.900;2023-07-09T12:16:35;10.32;;;9.00;;
74196;SDS011;62555;52.678;4.900;2023-07-09T12:19:00;11.20;;;10.02;;
74196;SDS011;62555;52.678;4.900;2023-07-09T12:21:26;11.47;;;10.37;;
74196;SDS011;62555;52.678;4.900;2023-07-09T12:23:52;13.20;;;11.90;;
74196;SDS011;62555;52.678;4.900;2023-07-09T12:26:18;13.60;;;12.25;;
74196;SDS011;62555;52.678;4.900;2023-07-09T12:28:49;13.05;;;11.73;;
74196;SDS011;62555;52.678;4.900;2023-07-09T12:31:15;13.48;;;12.15;;
74196;SDS011;62555;52.678;4.900;2023-07-09T12:33:47;15.13;;;13.52;;
74196;SDS011;62555;52.678;4.900;2023-07-09T12:36:14;16.92;;;15.23;;
74196;SDS011;62555;52.678;4.900;2023-07-09T12:38:43;16.15;;;14.50;;
74196;SDS011;62555;52.678;4.900;2023-07-09T12:43:42;16.92;;;15.18;;
74196;SDS011;62555;52.678;4.900;2023-07-09T12:46:08;17.58;;;15.75;;
74196;SDS011;62555;52.678;4.900;2023-07-09T12:48:33;17.57;;;15.70;;
74196;SDS011;62555;52.678;4.900;2023-07-09T12:50:59;19.98;;;16.48;;
74196;SDS011;62555;52.678;4.900;2023-07-09T12:53:26;19.15;;;17.23;;
74196;SDS011;62555;52.678;4.900;2023-07-09T12:58:22;18.95;;;16.63;;
74196;SDS011;62555;52.678;4.900;2023-07-09T13:00:49;17.88;;;15.35;;
74196;SDS011;62555;52.678;4.900;2023-07-09T13:03:18;17.75;;;15.52;;
74196;SDS011;62555;52.678;4.900;2023-07-09T13:08:40;17.77;;;15.38;;
74196;SDS011;62555;52.678;4.900;2023-07-09T13:11:16;17.15;;;13.98;;
74196;SDS011;62555;52.678;4.900;2023-07-09T13:13:52;17.70;;;14.00;;
74196;SDS011;62555;52.678;4.900;2023-07-09T13:16:18;16.40;;;14.00;;
74196;SDS011;62555;52.678;4.900;2023-07-09T13:18:44;17.15;;;14.35;;
74196;SDS011;62555;52.678;4.900;2023-07-09T13:21:16;18.20;;;14.20;;
74196;SDS011;62555;52.678;4.900;2023-07-09T13:23:41;16.15;;;13.27;;
74196;SDS011;62555;52.678;4.900;2023-07-09T13:26:08;16.90;;;13.43;;
74196;SDS011;62555;52.678;4.900;2023-07-09T13:28:33;15.73;;;13.80;;
74196;SDS011;62555;52.678;4.900;2023-07-09T13:31:00;16.08;;;13.93;;
74196;SDS011;62555;52.678;4.900;2023-07-09T13:33:25;14.50;;;11.82;;
74196;SDS011;62555;52.678;4.900;2023-07-09T13:35:51;16.15;;;13.82;;
74196;SDS011;62555;52.678;4.900;2023-07-09T13:38:19;14.40;;;12.13;;
74196;SDS011;62555;52.678;4.900;2023-07-09T13:40:46;15.57;;;12.77;;
74196;SDS011;62555;52.678;4.900;2023-07-09T13:45:38;16.55;;;13.98;;
74196;SDS011;62555;52.678;4.900;2023-07-09T13:48:04;20.23;;;17.75;;
74196;SDS011;62555;52.678;4.900;2023-07-09T13:50:30;31.00;;;27.88;;
74196;SDS011;62555;52.678;4.900;2023-07-09T13:52:55;33.97;;;30.53;;
74196;SDS011;62555;52.678;4.900;2023-07-09T13:55:21;61.80;;;53.63;;
74196;SDS011;62555;52.678;4.900;2023-07-09T13:57:47;55.55;;;43.17;;
74196;SDS011;62555;52.678;4.900;2023-07-09T14:00:13;48.85;;;37.30;;
74196;SDS011;62555;52.678;4.900;2023-07-09T14:02:38;56.10;;;42.53;;
74196;SDS011;62555;52.678;4.900;2023-07-09T14:05:05;81.22;;;57.72;;
74196;SDS011;62555;52.678;4.900;2023-07-09T14:09:57;39.53;;;29.40;;
74196;SDS011;62555;52.678;4.900;2023-07-09T14:12:22;32.08;;;26.42;;
74196;SDS011;62555;52.678;4.900;2023-07-09T14:14:49;42.03;;;32.33;;
74196;SDS011;62555;52.678;4.900;2023-07-09T14:17:14;36.22;;;26.73;;
74196;SDS011;62555;52.678;4.900;2023-07-09T14:19:39;26.17;;;20.93;;
74196;SDS011;62555;52.678;4.900;2023-07-09T14:22:21;21.93;;;19.63;;
74196;SDS011;62555;52.678;4.900;2023-07-09T14:24:47;24.73;;;20.75;;
74196;SDS011;62555;52.678;4.900;2023-07-09T14:27:13;24.27;;;20.10;;
74196;SDS011;62555;52.678;4.900;2023-07-09T14:29:38;22.53;;;19.50;;
74196;SDS011;62555;52.678;4.900;2023-07-09T14:32:04;19.37;;;17.27;;
74196;SDS011;62555;52.678;4.900;2023-07-09T14:34:30;20.98;;;16.67;;
74196;SDS011;62555;52.678;4.900;2023-07-09T14:36:58;19.50;;;15.98;;
74196;SDS011;62555;52.678;4.900;2023-07-09T14:39:25;23.35;;;18.13;;
74196;SDS011;62555;52.678;4.900;2023-07-09T14:41:50;20.15;;;18.00;;
74196;SDS011;62555;52.678;4.900;2023-07-09T14:44:29;35.97;;;28.43;;
74196;SDS011;62555;52.678;4.900;2023-07-09T14:46:55;24.90;;;21.00;;
74196;SDS011;62555;52.678;4.900;2023-07-09T14:49:21;20.42;;;15.45;;
74196;SDS011;62555;52.678;4.900;2023-07-09T14:51:47;32.20;;;18.67;;
74196;SDS011;62555;52.678;4.900;2023-07-09T14:54:33;17.40;;;14.88;;
74196;SDS011;62555;52.678;4.900;2023-07-09T14:56:58;14.90;;;13.43;;
74196;SDS011;62555;52.678;4.900;2023-07-09T14:59:24;16.25;;;12.50;;
74196;SDS011;62555;52.678;4.900;2023-07-09T15:01:49;21.30;;;19.00;;
74196;SDS011;62555;52.678;4.900;2023-07-09T15:06:49;12.88;;;11.50;;
74196;SDS011;62555;52.678;4.900;2023-07-09T15:09:14;103.55;;;83.40;;
74196;SDS011;62555;52.678;4.900;2023-07-09T15:11:42;45.58;;;38.25;;
74196;SDS011;62555;52.678;4.900;2023-07-09T15:14:10;16.23;;;13.27;;